createdAt,value
2023-02-11T00:01:24.237Z,9.51
2023-02-11T00:02:57.110Z,9.49
2023-02-11T00:04:28.596Z,9.43
2023-02-11T00:06:00.790Z,9.38
2023-02-11T00:07:32.914Z,9.30
2023-02-11T00:09:04.566Z,9.30
2023-02-11T00:10:36.013Z,9.26
2023-02-11T00:12:07.609Z,9.29
2023-02-11T00:13:39.235Z,9.31
2023-02-11T00:15:10.769Z,9.32
2023-02-11T00:16:42.317Z,9.35
2023-02-11T00:18:15.405Z,9.39
2023-02-11T00:19:49.358Z,9.43
2023-02-11T00:21:21.553Z,9.44
2023-02-11T00:22:53.072Z,9.46
2023-02-11T00:24:24.676Z,9.42
2023-02-11T00:25:56.151Z,9.37
2023-02-11T00:27:27.693Z,9.38
2023-02-11T00:29:00.714Z,9.34
2023-02-11T00:30:32.303Z,9.27
2023-02-11T00:32:05.267Z,9.22
2023-02-11T00:33:38.270Z,9.19
2023-02-11T00:35:10.721Z,9.14
2023-02-11T00:36:43.896Z,9.06
2023-02-11T00:38:15.494Z,9.02
2023-02-11T00:39:47.049Z,8.98
2023-02-11T00:41:19.126Z,8.94
2023-02-11T00:42:50.565Z,8.90
2023-02-11T00:44:22.109Z,8.89
2023-02-11T00:45:53.762Z,8.86
2023-02-11T00:47:25.382Z,8.86
2023-02-11T00:48:58.242Z,8.77
2023-02-11T00:50:29.691Z,8.74
2023-02-11T00:52:01.147Z,8.72
2023-02-11T00:53:32.917Z,8.70
2023-02-11T00:55:04.714Z,8.68
2023-02-11T00:56:37.340Z,8.65
2023-02-11T00:58:08.837Z,8.64
2023-02-11T00:59:40.467Z,8.69
2023-02-11T01:01:12.615Z,8.75
2023-02-11T01:02:44.102Z,8.80
2023-02-11T01:04:16.936Z,8.81
2023-02-11T01:05:48.800Z,8.81
2023-02-11T01:07:20.489Z,8.85
2023-02-11T01:08:53.150Z,8.84
2023-02-11T01:10:24.654Z,8.83
2023-02-11T01:11:57.544Z,8.79
2023-02-11T01:13:30.101Z,8.75
2023-02-11T01:15:01.693Z,8.67
2023-02-11T01:16:33.218Z,8.60
2023-02-11T01:18:04.896Z,8.57
2023-02-11T01:19:37.897Z,8.55
2023-02-11T01:21:09.422Z,8.55
2023-02-11T01:22:40.922Z,8.51
2023-02-11T01:24:12.838Z,8.48
2023-02-11T01:25:44.505Z,8.48
2023-02-11T01:27:16.056Z,8.52
2023-02-11T01:28:47.579Z,8.58
2023-02-11T01:30:19.065Z,8.60
2023-02-11T01:31:52.461Z,8.61
2023-02-11T01:33:24.311Z,8.61
2023-02-11T01:34:57.138Z,8.63
2023-02-11T01:36:28.618Z,8.69
2023-02-11T01:38:00.232Z,8.72
2023-02-11T01:39:33.188Z,8.75
2023-02-11T01:41:06.058Z,8.77
2023-02-11T01:42:37.649Z,8.80
2023-02-11T01:44:26.746Z,8.76
2023-02-11T01:46:00.462Z,8.76
2023-02-11T01:47:31.984Z,8.71
2023-02-11T01:49:05.960Z,8.67
2023-02-11T01:50:40.188Z,8.64
2023-02-11T01:52:14.513Z,8.61
2023-02-11T01:54:05.682Z,8.61
2023-02-11T01:55:55.634Z,8.67
2023-02-11T01:57:30.233Z,8.75
2023-02-11T01:59:05.278Z,8.80
2023-02-11T02:00:37.961Z,8.78
2023-02-11T02:02:11.811Z,8.81
2023-02-11T02:03:45.905Z,8.79
2023-02-11T02:05:22.744Z,8.76
2023-02-11T02:06:59.820Z,8.73
2023-02-11T02:08:35.992Z,8.67
2023-02-11T02:10:09.693Z,8.64
2023-02-11T02:11:41.226Z,8.59
2023-02-11T02:13:13.540Z,8.58
2023-02-11T02:14:45.047Z,8.56
2023-02-11T02:16:18.137Z,8.57
2023-02-11T02:17:54.514Z,8.59
2023-02-11T02:19:48.184Z,8.58
2023-02-11T02:21:34.108Z,8.55
2023-02-11T02:23:13.427Z,8.52
2023-02-11T02:24:56.660Z,8.49
2023-02-11T02:26:46.760Z,8.47
2023-02-11T02:28:32.762Z,8.45
2023-02-11T02:32:14.748Z,8.50
2023-02-11T02:33:50.356Z,8.53
2023-02-11T02:35:29.439Z,8.60
2023-02-11T02:37:04.692Z,8.66
2023-02-11T02:38:38.614Z,8.69
2023-02-11T02:40:12.788Z,8.64
2023-02-11T02:41:45.075Z,8.64
2023-02-11T02:43:17.235Z,8.67
2023-02-11T02:44:49.284Z,8.67
2023-02-11T02:46:22.370Z,8.70
2023-02-11T02:47:55.216Z,8.75
2023-02-11T02:49:26.704Z,8.78
2023-02-11T02:51:04.580Z,8.74
2023-02-11T02:52:42.005Z,8.71
2023-02-11T02:54:33.269Z,8.69
2023-02-11T02:56:09.068Z,8.68
2023-02-11T02:57:49.569Z,8.70
2023-02-11T02:59:33.906Z,8.69
2023-02-11T03:01:10.588Z,8.72
2023-02-11T03:02:49.870Z,8.73
2023-02-11T03:04:27.021Z,8.72
2023-02-11T03:06:01.541Z,8.73
2023-02-11T03:07:37.932Z,8.76
2023-02-11T03:09:12.774Z,8.82
2023-02-11T03:10:46.164Z,8.83
2023-02-11T03:12:17.763Z,8.83
2023-02-11T03:13:50.226Z,8.84
2023-02-11T03:15:23.070Z,8.84
2023-02-11T03:16:56.771Z,8.91
2023-02-11T03:18:29.368Z,8.97
2023-02-11T03:20:02.812Z,8.98
2023-02-11T03:21:37.586Z,8.98
2023-02-11T03:23:11.824Z,8.99
2023-02-11T03:24:44.823Z,9.01
2023-02-11T03:26:18.403Z,9.05
2023-02-11T03:27:52.752Z,9.03
2023-02-11T03:29:30.933Z,9.04
2023-02-11T03:31:09.667Z,9.00
2023-02-11T03:32:44.012Z,8.95
2023-02-11T03:34:18.958Z,8.96
2023-02-11T03:35:54.388Z,8.91
2023-02-11T03:37:28.974Z,8.86
2023-02-11T03:39:02.120Z,8.89
2023-02-11T03:40:36.679Z,8.89
2023-02-11T03:42:10.670Z,8.89
2023-02-11T03:43:44.157Z,8.90
2023-02-11T03:45:17.821Z,8.89
2023-02-11T03:46:50.727Z,8.89
2023-02-11T03:48:25.211Z,8.86
2023-02-11T03:49:58.940Z,8.84
2023-02-11T03:51:32.942Z,8.83
2023-02-11T03:53:05.272Z,8.87
2023-02-11T03:54:38.850Z,8.86
2023-02-11T03:56:13.090Z,8.88
2023-02-11T03:57:44.715Z,8.85
2023-02-11T03:59:16.161Z,8.83
2023-02-11T04:00:47.760Z,8.86
2023-02-11T04:02:19.645Z,8.86
2023-02-11T04:03:51.122Z,8.89
2023-02-11T04:05:22.579Z,8.87
2023-02-11T04:06:55.423Z,8.84
2023-02-11T04:08:26.890Z,8.81
2023-02-11T04:09:58.346Z,8.80
2023-02-11T04:11:29.823Z,8.75
2023-02-11T04:13:01.298Z,8.77
2023-02-11T04:14:32.771Z,8.75
2023-02-11T04:16:04.506Z,8.83
2023-02-11T04:17:36.929Z,8.89
2023-02-11T04:19:08.554Z,8.90
2023-02-11T04:20:40.006Z,8.89
2023-02-11T04:22:12.845Z,8.87
2023-02-11T04:23:44.320Z,8.89
2023-02-11T04:25:15.789Z,8.84
2023-02-11T04:26:47.310Z,8.81
2023-02-11T04:28:18.817Z,8.80
2023-02-11T04:29:50.360Z,8.79
2023-02-11T04:31:21.941Z,8.74
2023-02-11T04:32:54.515Z,8.70
2023-02-11T04:34:26.041Z,8.66
2023-02-11T04:35:57.563Z,8.71
2023-02-11T04:37:30.476Z,8.73
2023-02-11T04:39:02.016Z,8.71
2023-02-11T04:40:33.493Z,8.70
2023-02-11T04:42:04.997Z,8.67
2023-02-11T04:43:36.559Z,8.70
2023-02-11T04:45:08.495Z,8.72
2023-02-11T04:46:39.955Z,8.74
2023-02-11T04:48:11.421Z,8.77
2023-02-11T04:49:42.886Z,8.74
2023-02-11T04:51:14.339Z,8.79
2023-02-11T04:52:47.145Z,8.75
2023-02-11T04:54:18.675Z,8.76
2023-02-11T04:55:50.939Z,8.80
2023-02-11T04:57:22.812Z,8.87
2023-02-11T04:58:54.313Z,8.91
2023-02-11T05:00:25.800Z,8.93
2023-02-11T05:01:57.240Z,8.94
2023-02-11T05:03:28.715Z,8.93
2023-02-11T05:05:00.244Z,8.97
2023-02-11T05:06:31.674Z,9.04
2023-02-11T05:08:04.684Z,8.99
2023-02-11T05:09:36.124Z,8.97
2023-02-11T05:11:08.104Z,8.96
2023-02-11T05:12:39.616Z,8.96
2023-02-11T05:14:11.056Z,8.97
2023-02-11T05:15:42.615Z,8.96
2023-02-11T05:17:14.067Z,8.93
2023-02-11T05:18:45.787Z,8.97
2023-02-11T05:20:17.385Z,8.99
2023-02-11T05:22:01.809Z,9.01
2023-02-11T05:23:35.605Z,9.00
2023-02-11T05:25:07.622Z,9.01
2023-02-11T05:26:39.102Z,9.05
2023-02-11T05:28:10.751Z,9.10
2023-02-11T05:29:42.309Z,9.14
2023-02-11T05:31:14.723Z,9.13
2023-02-11T05:32:46.404Z,9.13
2023-02-11T05:34:17.931Z,9.16
2023-02-11T05:35:49.862Z,9.19
2023-02-11T05:37:21.564Z,9.17
2023-02-11T05:38:54.381Z,9.17
2023-02-11T05:40:25.854Z,9.12
2023-02-11T05:41:57.332Z,9.15
2023-02-11T05:43:28.839Z,9.16
2023-02-11T05:45:00.777Z,9.16
2023-02-11T05:46:32.331Z,9.20
2023-02-11T05:48:03.943Z,9.21
2023-02-11T05:49:35.796Z,9.26
2023-02-11T05:51:07.276Z,9.27
2023-02-11T05:52:38.732Z,9.22
2023-02-11T05:54:11.745Z,9.20
2023-02-11T05:55:43.410Z,9.17
2023-02-11T05:57:15.260Z,9.18
2023-02-11T05:58:46.743Z,9.17
2023-02-11T06:00:18.475Z,9.09
2023-02-11T06:01:49.905Z,9.05
2023-02-11T06:03:21.386Z,9.00
2023-02-11T06:04:52.912Z,9.01
2023-02-11T06:06:24.571Z,8.99
2023-02-11T06:07:56.195Z,9.03
2023-02-11T06:09:29.113Z,9.10
2023-02-11T06:11:00.575Z,9.16
2023-02-11T06:12:32.069Z,9.16
2023-02-11T06:14:03.786Z,9.17
2023-02-11T06:15:35.338Z,9.17
2023-02-11T06:17:06.897Z,9.18
2023-02-11T06:18:38.463Z,9.18
2023-02-11T06:20:11.196Z,9.18
2023-02-11T06:21:44.414Z,9.26
2023-02-11T06:23:16.116Z,9.33
2023-02-11T06:25:01.010Z,9.34
2023-02-11T06:26:33.037Z,9.37
2023-02-11T06:28:04.685Z,9.39
2023-02-11T06:29:36.171Z,9.40
2023-02-11T06:31:08.016Z,9.37
2023-02-11T06:32:44.330Z,9.33
2023-02-11T06:34:16.519Z,9.33
2023-02-11T06:35:48.193Z,9.35
2023-02-11T06:37:19.792Z,9.38
2023-02-11T06:38:51.594Z,9.39
2023-02-11T06:40:24.429Z,9.36
2023-02-11T06:41:55.905Z,9.32
2023-02-11T06:43:27.366Z,9.30
2023-02-11T06:44:58.875Z,9.35
2023-02-11T06:46:30.350Z,9.39
2023-02-11T06:48:01.898Z,9.43
2023-02-11T06:49:33.365Z,9.46
2023-02-11T06:51:06.103Z,9.46
2023-02-11T06:52:37.614Z,9.46
2023-02-11T06:54:09.115Z,9.44
2023-02-11T06:55:42.430Z,9.47
2023-02-11T06:57:13.986Z,9.51
2023-02-11T06:58:46.010Z,9.53
2023-02-11T07:00:18.078Z,9.54
2023-02-11T07:01:49.564Z,9.53
2023-02-11T07:03:21.179Z,9.56
2023-02-11T07:04:52.717Z,9.55
2023-02-11T07:06:27.213Z,9.53
2023-02-11T07:07:58.741Z,9.57
2023-02-11T07:09:30.377Z,9.59
2023-02-11T07:11:08.334Z,9.57
2023-02-11T07:12:39.901Z,9.50
2023-02-11T07:14:13.259Z,9.48
2023-02-11T07:15:44.903Z,9.45
2023-02-11T07:17:16.623Z,9.39
2023-02-11T07:18:48.661Z,9.38
2023-02-11T07:20:20.099Z,9.39
2023-02-11T07:21:51.613Z,9.37
2023-02-11T07:23:23.145Z,9.35
2023-02-11T07:24:54.609Z,9.34
2023-02-11T07:26:28.821Z,9.35
2023-02-11T07:28:03.122Z,9.36
2023-02-11T07:29:34.591Z,9.33
2023-02-11T07:31:06.708Z,9.32
2023-02-11T07:32:38.315Z,9.29
2023-02-11T07:34:10.199Z,9.28
2023-02-11T07:35:42.710Z,9.21
2023-02-11T07:37:14.286Z,9.20
2023-02-11T07:38:45.717Z,9.19
2023-02-11T07:40:17.292Z,9.22
2023-02-11T07:41:50.123Z,9.22
2023-02-11T07:43:22.114Z,9.23
2023-02-11T07:44:53.624Z,9.27
2023-02-11T07:46:26.426Z,9.29
2023-02-11T07:47:57.951Z,9.27
2023-02-11T07:49:29.703Z,9.28
2023-02-11T07:51:08.220Z,9.28
2023-02-11T07:52:39.843Z,9.31
2023-02-11T07:54:12.124Z,9.32
2023-02-11T07:55:43.673Z,9.37
2023-02-11T07:57:16.770Z,9.41
2023-02-11T07:58:48.806Z,9.43
2023-02-11T08:00:21.288Z,9.45
2023-02-11T08:01:52.888Z,9.48
2023-02-11T08:03:24.334Z,9.55
2023-02-11T08:04:55.836Z,9.62
2023-02-11T08:06:28.926Z,9.61
2023-02-11T08:08:00.423Z,9.59
2023-02-11T08:09:34.431Z,9.57
2023-02-11T08:11:07.453Z,9.52
2023-02-11T08:12:40.373Z,9.50
2023-02-11T08:14:12.268Z,9.54
2023-02-11T08:15:43.920Z,9.58
2023-02-11T08:17:15.408Z,9.61
2023-02-11T08:18:47.134Z,9.60
2023-02-11T08:20:18.775Z,9.63
2023-02-11T08:21:50.429Z,9.66
2023-02-11T08:23:22.017Z,9.70
2023-02-11T08:24:53.541Z,9.70
2023-02-11T08:26:26.756Z,9.67
2023-02-11T08:27:59.926Z,9.65
2023-02-11T08:29:31.623Z,9.67
2023-02-11T08:31:05.094Z,9.70
2023-02-11T08:32:36.735Z,9.74
2023-02-11T08:34:09.914Z,9.76
2023-02-11T08:35:41.464Z,9.80
2023-02-11T08:37:12.982Z,9.82
2023-02-11T08:38:44.825Z,9.86
2023-02-11T08:40:16.486Z,9.89
2023-02-11T08:41:48.993Z,9.92
2023-02-11T08:43:23.234Z,9.96
2023-02-11T08:44:54.744Z,9.97
2023-02-11T08:46:26.730Z,9.97
2023-02-11T08:47:58.258Z,9.97
2023-02-11T08:49:30.850Z,9.98
2023-02-11T08:51:05.828Z,10.03
2023-02-11T08:52:37.346Z,9.99
2023-02-11T08:54:09.873Z,9.94
2023-02-11T08:55:47.753Z,9.88
2023-02-11T08:57:19.280Z,9.89
2023-02-11T08:58:52.529Z,9.90
2023-02-11T09:00:24.206Z,9.91
2023-02-11T09:01:56.282Z,9.88
2023-02-11T09:03:27.923Z,9.91
2023-02-11T09:04:59.486Z,9.85
2023-02-11T09:06:31.733Z,9.82
2023-02-11T09:08:03.297Z,9.83
2023-02-11T09:09:35.264Z,9.81
2023-02-11T09:11:07.156Z,9.82
2023-02-11T09:12:38.681Z,9.86
2023-02-11T09:14:16.207Z,9.87
2023-02-11T09:15:47.722Z,9.88
2023-02-11T09:17:19.198Z,9.93
2023-02-11T09:18:50.928Z,9.96
2023-02-11T09:20:22.826Z,9.93
2023-02-11T09:21:54.309Z,9.92
2023-02-11T09:23:25.788Z,10.00
2023-02-11T09:24:57.411Z,10.06
2023-02-11T09:26:29.581Z,10.07
2023-02-11T09:28:01.237Z,10.09
2023-02-11T09:29:34.230Z,10.08
2023-02-11T09:31:06.599Z,10.10
2023-02-11T09:32:38.410Z,10.09
2023-02-11T09:34:11.029Z,10.12
2023-02-11T09:35:42.821Z,10.09
2023-02-11T09:37:14.477Z,10.07
2023-02-11T09:38:46.727Z,10.07
2023-02-11T09:40:19.917Z,10.11
2023-02-11T09:42:00.293Z,10.19
2023-02-11T09:43:36.377Z,10.22
2023-02-11T09:45:13.307Z,10.25
2023-02-11T09:46:47.706Z,10.25
2023-02-11T09:48:21.009Z,10.34
2023-02-11T09:49:53.994Z,10.35
2023-02-11T09:51:32.272Z,10.29
2023-02-11T09:53:06.277Z,10.23
2023-02-11T09:54:41.597Z,10.21
2023-02-11T09:56:14.358Z,10.26
2023-02-11T09:57:46.137Z,10.25
2023-02-11T09:59:18.556Z,10.28
2023-02-11T10:00:55.147Z,10.23
2023-02-11T10:02:29.619Z,10.21
2023-02-11T10:04:04.912Z,10.17
2023-02-11T10:05:44.075Z,10.14
2023-02-11T10:07:19.503Z,10.17
2023-02-11T10:08:59.050Z,10.23
2023-02-11T10:10:38.682Z,10.22
2023-02-11T10:12:27.459Z,10.24
2023-02-11T10:14:07.284Z,10.32
2023-02-11T10:15:43.622Z,10.35
2023-02-11T10:17:21.400Z,10.31
2023-02-11T10:19:07.350Z,10.29
2023-02-11T10:20:44.406Z,10.28
2023-02-11T10:22:19.901Z,10.22
2023-02-11T10:23:54.021Z,10.22
2023-02-11T10:25:26.847Z,10.20
2023-02-11T10:26:58.589Z,10.20
2023-02-11T10:28:31.389Z,10.14
2023-02-11T10:30:06.254Z,10.13
2023-02-11T10:31:39.965Z,10.13
2023-02-11T10:33:17.476Z,10.14
2023-02-11T10:34:49.171Z,10.16
2023-02-11T10:36:23.891Z,10.20
2023-02-11T10:37:56.133Z,10.29
2023-02-11T10:39:28.116Z,10.31
2023-02-11T10:40:59.891Z,10.32
2023-02-11T10:42:31.519Z,10.28
2023-02-11T10:44:06.114Z,10.25
2023-02-11T10:45:38.938Z,10.23
2023-02-11T10:47:14.515Z,10.18
2023-02-11T10:48:50.512Z,10.17
2023-02-11T10:50:24.144Z,10.23
2023-02-11T10:52:12.166Z,10.22
2023-02-11T10:53:43.952Z,10.22
2023-02-11T10:55:16.765Z,10.23
2023-02-11T10:56:59.572Z,10.23
2023-02-11T10:58:31.860Z,10.25
2023-02-11T11:00:21.510Z,10.25
2023-02-11T11:01:54.328Z,10.32
2023-02-11T11:03:27.197Z,10.37
2023-02-11T11:05:01.186Z,10.45
2023-02-11T11:06:33.680Z,10.44
2023-02-11T11:08:05.905Z,10.43
2023-02-11T11:09:43.470Z,10.42
2023-02-11T11:11:16.084Z,10.42
2023-02-11T11:12:48.305Z,10.47
2023-02-11T11:14:20.390Z,10.48
2023-02-11T11:16:08.324Z,10.49
2023-02-11T11:17:39.907Z,10.54
2023-02-11T11:19:15.880Z,10.54
2023-02-11T11:20:56.460Z,10.51
2023-02-11T11:22:27.971Z,10.52
2023-02-11T11:24:00.763Z,10.56
2023-02-11T11:25:32.291Z,10.57
2023-02-11T11:27:05.424Z,10.63
2023-02-11T11:28:39.220Z,10.64
2023-02-11T11:30:15.348Z,10.64
2023-02-11T11:31:49.418Z,10.61
2023-02-11T11:33:22.750Z,10.61
2023-02-11T11:34:55.689Z,10.64
2023-02-11T11:36:39.584Z,10.68
2023-02-11T11:38:14.566Z,10.69
2023-02-11T11:39:48.969Z,10.70
2023-02-11T11:41:23.547Z,10.72
2023-02-11T11:43:12.885Z,10.71
2023-02-11T11:44:55.841Z,10.74
2023-02-11T11:46:29.308Z,10.76
2023-02-11T11:48:04.311Z,10.73
2023-02-11T11:49:37.589Z,10.75
2023-02-11T11:51:10.555Z,10.80
2023-02-11T11:52:46.304Z,10.83
2023-02-11T11:54:19.892Z,10.85
2023-02-11T11:55:53.476Z,10.86
2023-02-11T11:57:26.926Z,10.90
2023-02-11T11:59:00.427Z,10.96
2023-02-11T12:00:35.263Z,11.02
2023-02-11T12:02:14.174Z,11.07
2023-02-11T12:04:03.682Z,11.11
2023-02-11T12:05:37.627Z,11.12
2023-02-11T12:07:19.543Z,11.11
2023-02-11T12:09:00.869Z,11.10
2023-02-11T12:10:40.072Z,11.06
2023-02-11T12:12:17.903Z,11.07
2023-02-11T12:13:57.381Z,11.08
2023-02-11T12:15:32.512Z,11.07
2023-02-11T12:17:07.135Z,11.10
2023-02-11T12:18:47.914Z,11.07
2023-02-11T12:20:24.288Z,11.07
2023-02-11T12:22:03.138Z,11.08
2023-02-11T12:23:41.662Z,11.10
2023-02-11T12:25:22.859Z,11.12
2023-02-11T12:26:57.780Z,11.07
2023-02-11T12:28:34.739Z,11.09
2023-02-11T12:30:16.589Z,11.11
2023-02-11T12:31:56.422Z,11.10
2023-02-11T12:33:36.089Z,11.10
2023-02-11T12:35:21.299Z,11.10
2023-02-11T12:36:57.760Z,11.08
2023-02-11T12:38:36.335Z,11.08
2023-02-11T12:40:12.780Z,11.06
2023-02-11T12:42:11.475Z,11.07
2023-02-11T12:43:44.388Z,11.08
2023-02-11T12:45:25.978Z,11.10
2023-02-11T12:47:04.058Z,11.12
2023-02-11T12:48:52.796Z,11.15
2023-02-11T12:50:29.989Z,11.21
2023-02-11T12:52:22.637Z,11.23
2023-02-11T12:54:06.929Z,11.25
2023-02-11T12:55:40.511Z,11.28
2023-02-11T12:57:21.393Z,11.27
2023-02-11T12:58:55.673Z,11.25
2023-02-11T13:00:31.202Z,11.18
2023-02-11T13:02:09.680Z,11.10
2023-02-11T13:03:43.237Z,11.10
2023-02-11T13:05:24.623Z,11.16
2023-02-11T13:06:57.538Z,11.21
2023-02-11T13:08:31.117Z,11.25
2023-02-11T13:10:07.805Z,11.29
2023-02-11T13:11:40.756Z,11.39
2023-02-11T13:13:18.440Z,11.42
2023-02-11T13:14:52.498Z,11.38
2023-02-11T13:16:30.852Z,11.37
2023-02-11T13:18:05.273Z,11.35
2023-02-11T13:19:42.501Z,11.39
2023-02-11T13:21:23.254Z,11.41
2023-02-11T13:22:59.169Z,11.39
2023-02-11T13:24:36.668Z,11.37
2023-02-11T13:26:12.985Z,11.31
2023-02-11T13:27:48.109Z,11.26
2023-02-11T13:29:30.318Z,11.24
2023-02-11T13:31:03.348Z,11.22
2023-02-11T13:32:49.811Z,11.25
2023-02-11T13:34:26.325Z,11.32
2023-02-11T13:36:25.489Z,11.37
2023-02-11T13:37:57.863Z,11.42
2023-02-11T13:39:29.920Z,11.46
2023-02-11T13:41:03.900Z,11.51
2023-02-11T13:42:47.898Z,11.57
2023-02-11T13:44:25.548Z,11.56
2023-02-11T13:45:58.673Z,11.54
2023-02-11T13:47:31.721Z,11.54
2023-02-11T13:49:03.332Z,11.52
2023-02-11T13:50:39.058Z,11.48
2023-02-11T13:52:22.868Z,11.50
2023-02-11T13:53:55.868Z,11.59
2023-02-11T13:55:28.054Z,11.64
2023-02-11T13:57:18.522Z,11.61
2023-02-11T13:58:50.853Z,11.54
2023-02-11T14:00:50.380Z,11.49
2023-02-11T14:02:44.579Z,11.54
2023-02-11T14:04:39.289Z,11.69
2023-02-11T14:06:32.418Z,11.83
2023-02-11T14:08:40.945Z,12.00
2023-02-11T14:10:30.859Z,12.04
2023-02-11T14:12:21.411Z,12.04
2023-02-11T14:14:03.357Z,11.99
2023-02-11T14:15:39.057Z,11.98
2023-02-11T14:17:27.689Z,11.97
2023-02-11T14:19:02.398Z,12.03
2023-02-11T14:20:43.260Z,12.07
2023-02-11T14:22:18.649Z,12.13
2023-02-11T14:23:53.222Z,12.21
2023-02-11T14:25:25.449Z,12.27
2023-02-11T14:27:00.599Z,12.36
2023-02-11T14:28:34.180Z,12.43
2023-02-11T14:30:24.430Z,12.31
2023-02-11T14:32:00.506Z,12.19
2023-02-11T14:33:43.418Z,12.10
2023-02-11T14:35:22.475Z,12.16
2023-02-11T14:37:03.471Z,12.22
2023-02-11T14:38:42.025Z,12.26
2023-02-11T14:40:22.991Z,12.32
2023-02-11T14:41:54.680Z,12.36
2023-02-11T14:43:29.689Z,12.43
2023-02-11T14:45:04.233Z,12.45
2023-02-11T14:46:36.040Z,12.49
2023-02-11T14:48:13.529Z,12.55
2023-02-11T14:49:45.504Z,12.56
2023-02-11T14:51:23.239Z,12.57
2023-02-11T14:52:55.640Z,12.45
2023-02-11T14:54:28.107Z,12.36
2023-02-11T14:55:59.675Z,12.39
2023-02-11T14:57:31.285Z,12.36
2023-02-11T14:59:02.878Z,12.30
2023-02-11T15:00:34.507Z,12.25
2023-02-11T15:02:19.654Z,12.15
2023-02-11T15:03:51.189Z,12.14
2023-02-11T15:05:26.022Z,12.24
2023-02-11T15:07:03.305Z,12.29
2023-02-11T15:08:36.780Z,12.39
2023-02-11T15:10:17.707Z,12.39
2023-02-11T15:11:50.729Z,12.39
2023-02-11T15:13:27.041Z,12.34
2023-02-11T15:15:00.407Z,12.31
2023-02-11T15:16:35.920Z,12.35
2023-02-11T15:18:09.560Z,12.30
2023-02-11T15:19:44.776Z,12.27
2023-02-11T15:21:20.421Z,12.28
2023-02-11T15:22:55.756Z,12.26
2023-02-11T15:24:29.655Z,12.22
2023-02-11T15:26:05.553Z,12.22
2023-02-11T15:27:40.643Z,12.26
2023-02-11T15:29:15.832Z,12.33
2023-02-11T15:30:47.413Z,12.34
2023-02-11T15:32:21.575Z,12.34
2023-02-11T15:33:53.877Z,12.35
2023-02-11T15:35:28.418Z,12.38
2023-02-11T15:37:00.009Z,12.36
2023-02-11T15:38:33.195Z,12.39
2023-02-11T15:40:09.300Z,12.39
2023-02-11T15:41:40.835Z,12.39
2023-02-11T15:43:12.295Z,12.38
2023-02-11T15:44:43.929Z,12.35
2023-02-11T15:46:16.866Z,12.31
2023-02-11T15:47:49.462Z,12.22
2023-02-11T15:49:21.423Z,12.21
2023-02-11T15:50:54.561Z,12.19
2023-02-11T15:52:27.370Z,12.18
2023-02-11T15:54:01.952Z,12.20
2023-02-11T15:55:33.618Z,12.14
2023-02-11T15:57:07.567Z,12.10
2023-02-11T15:58:40.309Z,12.06
2023-02-11T16:00:15.468Z,12.02
2023-02-11T16:01:47.765Z,12.02
2023-02-11T16:03:21.032Z,12.03
2023-02-11T16:04:54.185Z,12.06
2023-02-11T16:06:26.894Z,12.09
2023-02-11T16:07:59.317Z,12.08
2023-02-11T16:09:33.624Z,12.09
2023-02-11T16:11:09.005Z,12.04
2023-02-11T16:12:40.528Z,11.99
2023-02-11T16:14:20.934Z,11.91
2023-02-11T16:15:53.527Z,11.90
2023-02-11T16:17:26.714Z,11.90
2023-02-11T16:19:04.959Z,11.87
2023-02-11T16:20:37.463Z,11.80
2023-02-11T16:22:10.475Z,11.75
2023-02-11T16:23:43.549Z,11.68
2023-02-11T16:25:19.150Z,11.63
2023-02-11T16:26:52.581Z,11.60
2023-02-11T16:28:24.232Z,11.50
2023-02-11T16:29:56.814Z,11.45
2023-02-11T16:31:32.517Z,11.38
2023-02-11T16:33:05.398Z,11.34
2023-02-11T16:34:36.962Z,11.33
2023-02-11T16:36:11.406Z,11.28
2023-02-11T16:37:42.924Z,11.23
2023-02-11T16:39:14.752Z,11.17
2023-02-11T16:40:49.904Z,11.14
2023-02-11T16:42:21.533Z,11.13
2023-02-11T16:43:56.601Z,11.13
2023-02-11T16:45:28.507Z,11.09
2023-02-11T16:47:01.088Z,11.08
2023-02-11T16:48:32.604Z,11.06
2023-02-11T16:50:04.527Z,11.03
2023-02-11T16:51:38.582Z,11.03
2023-02-11T16:53:10.390Z,11.03
2023-02-11T16:54:42.181Z,11.04
2023-02-11T16:56:16.807Z,11.04
2023-02-11T16:57:48.390Z,11.01
2023-02-11T16:59:19.962Z,10.98
2023-02-11T17:00:52.123Z,10.92
2023-02-11T17:02:25.681Z,10.91
2023-02-11T17:03:57.214Z,10.94
2023-02-11T17:05:28.762Z,10.94
2023-02-11T17:07:00.231Z,10.93
2023-02-11T17:08:31.806Z,10.95
2023-02-11T17:10:03.895Z,10.99
2023-02-11T17:11:36.787Z,10.97
2023-02-11T17:13:08.520Z,10.91
2023-02-11T17:14:40.052Z,10.86
2023-02-11T17:16:15.924Z,10.86
2023-02-11T17:17:48.079Z,10.85
2023-02-11T17:19:20.976Z,10.90
2023-02-11T17:20:52.498Z,10.94
2023-02-11T17:22:23.982Z,10.96
2023-02-11T17:23:55.477Z,10.99
2023-02-11T17:25:27.266Z,10.99
2023-02-11T17:27:00.122Z,10.95
2023-02-11T17:28:32.422Z,10.93
2023-02-11T17:30:04.197Z,10.89
2023-02-11T17:31:36.621Z,10.82
2023-02-11T17:33:08.166Z,10.78
2023-02-11T17:34:40.393Z,10.79
2023-02-11T17:36:11.913Z,10.75
2023-02-11T17:37:43.428Z,10.76
2023-02-11T17:39:15.227Z,10.74
2023-02-11T17:40:48.989Z,10.73
2023-02-11T17:42:21.862Z,10.71
2023-02-11T17:43:53.503Z,10.69
2023-02-11T17:45:25.100Z,10.69
2023-02-11T17:46:56.676Z,10.70
2023-02-11T17:48:28.132Z,10.66
2023-02-11T17:49:59.726Z,10.63
2023-02-11T17:51:32.509Z,10.63
2023-02-11T17:53:05.148Z,10.65
2023-02-11T17:54:37.862Z,10.65
2023-02-11T17:56:10.185Z,10.58
2023-02-11T17:57:43.513Z,10.59
2023-02-11T17:59:17.701Z,10.63
2023-02-11T18:00:49.163Z,10.63
2023-02-11T18:02:20.756Z,10.61
2023-02-11T18:03:52.528Z,10.60
2023-02-11T18:05:29.376Z,10.54
2023-02-11T18:07:00.920Z,10.56
2023-02-11T18:08:32.423Z,10.55
2023-02-11T18:10:05.266Z,10.54
2023-02-11T18:11:38.167Z,10.53
2023-02-11T18:13:11.100Z,10.51
2023-02-11T18:14:42.547Z,10.57
2023-02-11T18:16:15.639Z,10.58
2023-02-11T18:17:47.374Z,10.59
2023-02-11T18:19:19.127Z,10.56
2023-02-11T18:20:55.595Z,10.56
2023-02-11T18:22:27.100Z,10.60
2023-02-11T18:24:01.137Z,10.60
2023-02-11T18:25:36.252Z,10.59
2023-02-11T18:27:08.051Z,10.63
2023-02-11T18:28:43.802Z,10.67
2023-02-11T18:30:18.317Z,10.72
2023-02-11T18:31:49.842Z,10.79
2023-02-11T18:33:21.384Z,10.82
2023-02-11T18:34:52.920Z,10.87
2023-02-11T18:36:24.450Z,10.91
2023-02-11T18:37:56.080Z,10.95
2023-02-11T18:39:27.787Z,10.97
2023-02-11T18:40:59.535Z,11.00
2023-02-11T18:42:32.966Z,11.04
2023-02-11T18:44:06.010Z,11.06
2023-02-11T18:45:37.641Z,11.04
2023-02-11T18:47:09.221Z,11.03
2023-02-11T18:48:41.135Z,11.03
2023-02-11T18:50:14.697Z,11.05
2023-02-11T18:51:46.809Z,11.06
2023-02-11T18:53:18.427Z,11.12
2023-02-11T18:54:50.666Z,11.13
2023-02-11T18:56:23.352Z,11.11
2023-02-11T18:57:55.095Z,11.09
2023-02-11T18:59:28.045Z,11.05
2023-02-11T19:00:59.553Z,11.09
2023-02-11T19:02:31.161Z,11.09
2023-02-11T19:04:04.414Z,11.12
2023-02-11T19:05:40.463Z,11.12
2023-02-11T19:07:11.953Z,11.11
2023-02-11T19:08:43.487Z,11.13
2023-02-11T19:10:14.965Z,11.09
2023-02-11T19:11:54.381Z,11.00
2023-02-11T19:13:28.042Z,10.95
2023-02-11T19:15:01.226Z,10.97
2023-02-11T19:16:32.770Z,10.97
2023-02-11T19:18:04.648Z,10.93
2023-02-11T19:19:36.453Z,10.96
2023-02-11T19:21:08.716Z,10.93
2023-02-11T19:22:40.219Z,10.91
2023-02-11T19:24:12.043Z,10.85
2023-02-11T19:25:47.035Z,10.82
2023-02-11T19:27:18.612Z,10.87
2023-02-11T19:28:50.096Z,10.95
2023-02-11T19:30:23.051Z,10.98
2023-02-11T19:31:54.940Z,11.03
2023-02-11T19:33:26.831Z,11.08
2023-02-11T19:34:58.345Z,11.12
2023-02-11T19:36:30.247Z,11.10
2023-02-11T19:38:01.890Z,11.11
2023-02-11T19:39:33.521Z,11.16
2023-02-11T19:41:05.239Z,11.17
2023-02-11T19:42:36.747Z,11.12
2023-02-11T19:44:09.458Z,11.15
2023-02-11T19:45:42.340Z,11.16
2023-02-11T19:47:13.870Z,11.18
2023-02-11T19:48:45.387Z,11.16
2023-02-11T19:50:17.005Z,11.14
2023-02-11T19:51:48.829Z,11.17
2023-02-11T19:53:20.434Z,11.19
2023-02-11T19:54:52.100Z,11.23
2023-02-11T19:56:23.786Z,11.27
2023-02-11T19:57:55.284Z,11.29
2023-02-11T19:59:26.847Z,11.30
2023-02-11T20:01:05.401Z,11.22
2023-02-11T20:02:37.420Z,11.16
2023-02-11T20:04:09.026Z,11.15
2023-02-11T20:05:43.317Z,11.18
2023-02-11T20:07:14.817Z,11.24
2023-02-11T20:08:46.699Z,11.29
2023-02-11T20:10:18.357Z,11.32
2023-02-11T20:11:49.869Z,11.33
2023-02-11T20:13:21.361Z,11.35
2023-02-11T20:14:52.893Z,11.39
2023-02-11T20:16:37.116Z,11.40
2023-02-11T20:18:16.502Z,11.39
2023-02-11T20:19:47.978Z,11.39
2023-02-11T20:21:20.540Z,11.39
2023-02-11T20:22:52.110Z,11.42
2023-02-11T20:24:24.145Z,11.37
2023-02-11T20:25:55.776Z,11.30
2023-02-11T20:27:32.065Z,11.30
2023-02-11T20:29:03.582Z,11.29
2023-02-11T20:30:35.141Z,11.29
2023-02-11T20:32:08.391Z,11.32
2023-02-11T20:33:40.391Z,11.30